Terminal Aerodrome Forecast
Issued by NWS

Current Version | Previous Version | Text Only | Print | Product List | Glossary On
Versions: 1 2 3 4 5 6 7 8 9 10 11 12 13 14 15 16 17 18 19 20 21 22 23 24 25 26 27 28 29 30 31 32 33 34 35 36 37 38 39 40 41 42 43 44 45 46 47 48 49 50
000 FTUS42 KRAH 272333 TAFRWI TAF KRWI 272333Z 2800/2824 01008KT P6SM SCT023 OVC045 FM280100 36010KT P6SM SCT015 BKN040 TEMPO 2806/2809 3SM -DZ BR BKN025 FM281400 33013G20KT P6SM SCT250 FM282300 30006KT P6SM SKC=

USA.gov is the U.S. government's official web portal to all federal, state and local government web resources and services.